Time;durP1;ratioP1;P1;durP2;ratioP2;P2;SDS_P1;SDS_P2;PMS_P1;PMS_P2;Temp;Humidity;BMP_temperature;BMP_pressure;BME280_temperature;BME280_humidity;BME280_pressure;Samples;Min_cycle;Max_cycle;Signal;HPM_P1;HPM_P2
2022/08/23 00:00:08;;;;;;;4.77;4.30;;;;;;;;;;4991975;28;20821;-54
2022/08/23 00:02:34;;;;;;;5.50;4.10;;;;;;;;;;4991992;28;20423;-54
2022/08/23 00:05:00;;;;;;;6.43;4.60;;;;;;;;;;4991166;28;20918;-52
2022/08/23 00:07:26;;;;;;;4.50;4.10;;;;;;;;;;4990288;28;20439;-52
2022/08/23 00:09:53;;;;;;;5.03;4.40;;;;;;;;;;4991579;28;20783;-51
2022/08/23 00:12:22;;;;;;;6.53;4.80;;;;;;;;;;4991846;28;20416;-54
2022/08/23 00:14:51;;;;;;;7.43;4.43;;;;;;;;;;4990208;28;20474;-54
2022/08/23 00:17:17;;;;;;;4.93;4.53;;;;;;;;;;4991809;28;20509;-54
2022/08/23 00:19:43;;;;;;;5.13;4.30;;;;;;;;;;4991594;28;20581;-54
2022/08/23 00:22:09;;;;;;;5.77;5.33;;;;;;;;;;4992301;28;20417;-51
2022/08/23 00:24:36;;;;;;;7.83;5.40;;;;;;;;;;4993554;28;20442;-49
2022/08/23 00:27:10;;;;;;;6.00;4.77;;;;;;;;;;4995404;28;20850;-52
2022/08/23 00:29:46;;;;;;;6.60;6.00;;;;;;;;;;4995311;28;20434;-51
2022/08/23 00:32:15;;;;;;;7.20;5.20;;;;;;;;;;4995191;28;20454;-50
2022/08/23 00:34:41;;;;;;;12.10;5.90;;;;;;;;;;4995546;28;20418;-51
2022/08/23 00:37:08;;;;;;;8.10;5.83;;;;;;;;;;4995273;28;20417;-51
2022/08/23 00:39:35;;;;;;;8.70;5.80;;;;;;;;;;4994837;28;20462;-50
2022/08/23 00:47:42;;;;;;;7.93;6.30;;;;;;;;;;4995441;28;20463;-50
2022/08/23 00:50:22;;;;;;;6.77;6.13;;;;;;;;;;4994835;28;20909;-51
2022/08/23 00:53:06;;;;;;;6.70;5.83;;;;;;;;;;4995045;28;20420;-50
2022/08/23 00:55:33;;;;;;;8.93;6.33;;;;;;;;;;4995040;28;20480;-50
2022/08/23 00:57:59;;;;;;;7.77;7.07;;;;;;;;;;4994754;28;20429;-50
2022/08/23 01:00:26;;;;;;;7.10;6.50;;;;;;;;;;4994568;28;20524;-50
2022/08/23 01:02:53;;;;;;;9.23;7.20;;;;;;;;;;4994044;28;20424;-51
2022/08/23 01:05:20;;;;;;;10.40;8.77;;;;;;;;;;4994463;28;20401;-51
2022/08/23 01:07:52;;;;;;;11.67;9.80;;;;;;;;;;4994558;28;20428;-50
2022/08/23 01:10:25;;;;;;;12.37;9.80;;;;;;;;;;4994438;28;20418;-50
2022/08/23 01:12:58;;;;;;;12.30;9.60;;;;;;;;;;4994550;28;20879;-51
2022/08/23 01:15:32;;;;;;;9.87;8.00;;;;;;;;;;4992949;28;20770;-50
2022/08/23 01:18:02;;;;;;;15.80;9.83;;;;;;;;;;4994443;28;20418;-49
2022/08/23 01:20:30;;;;;;;14.17;11.83;;;;;;;;;;4993122;28;21027;-50
2022/08/23 01:22:59;;;;;;;16.80;13.20;;;;;;;;;;4994253;28;20424;-50
2022/08/23 01:25:26;;;;;;;16.87;12.50;;;;;;;;;;4994585;28;20411;-50
2022/08/23 01:27:52;;;;;;;16.13;11.87;;;;;;;;;;4994460;28;20474;-50
2022/08/23 01:30:21;;;;;;;12.67;11.27;;;;;;;;;;4994119;28;20425;-50
2022/08/23 01:32:52;;;;;;;16.90;10.73;;;;;;;;;;4994158;28;20475;-50
2022/08/23 01:35:19;;;;;;;12.07;8.97;;;;;;;;;;4993846;28;20825;-50
2022/08/23 01:37:45;;;;;;;10.50;9.00;;;;;;;;;;4993988;28;20424;-51
2022/08/23 01:40:11;;;;;;;10.53;9.30;;;;;;;;;;4993973;28;20439;-51
2022/08/23 01:42:40;;;;;;;12.90;8.77;;;;;;;;;;4994008;28;20410;-52
2022/08/23 01:45:07;;;;;;;13.83;9.70;;;;;;;;;;4993060;28;20442;-50
2022/08/23 01:47:33;;;;;;;11.10;9.03;;;;;;;;;;4993838;28;20416;-51
2022/08/23 01:49:59;;;;;;;12.87;9.23;;;;;;;;;;4993172;28;20420;-50
2022/08/23 01:52:26;;;;;;;18.10;11.10;;;;;;;;;;4992773;28;20416;-50
2022/08/23 01:54:53;;;;;;;25.10;12.50;;;;;;;;;;4992658;28;20775;-50
2022/08/23 01:57:19;;;;;;;17.47;12.10;;;;;;;;;;4993168;28;20416;-50
2022/08/23 01:59:45;;;;;;;13.43;10.50;;;;;;;;;;4992451;28;20463;-51
2022/08/23 02:02:11;;;;;;;20.37;11.97;;;;;;;;;;4992976;28;20502;-51
2022/08/23 02:04:37;;;;;;;12.33;9.67;;;;;;;;;;4993441;28;20396;-51
2022/08/23 02:07:03;;;;;;;14.43;10.20;;;;;;;;;;4993634;28;20417;-51
2022/08/23 02:09:30;;;;;;;14.50;10.10;;;;;;;;;;4993551;28;20399;-51
2022/08/23 02:11:56;;;;;;;16.80;10.80;;;;;;;;;;4993490;28;20861;-50
2022/08/23 02:14:22;;;;;;;14.50;10.43;;;;;;;;;;4992038;28;20497;-51
2022/08/23 02:16:49;;;;;;;13.50;9.20;;;;;;;;;;4992997;28;20786;-50
2022/08/23 02:19:16;;;;;;;10.90;8.50;;;;;;;;;;4993354;28;20457;-51
2022/08/23 02:21:43;;;;;;;10.63;6.43;;;;;;;;;;4993293;28;20421;-51
2022/08/23 02:24:11;;;;;;;8.10;6.60;;;;;;;;;;4993789;28;20432;-51
2022/08/23 02:26:39;;;;;;;8.90;6.77;;;;;;;;;;4992961;28;20455;-51
2022/08/23 02:29:05;;;;;;;10.83;7.47;;;;;;;;;;4993117;28;20434;-50
2022/08/23 02:31:32;;;;;;;12.23;6.77;;;;;;;;;;4993083;28;20794;-50
2022/08/23 02:33:59;;;;;;;9.20;7.37;;;;;;;;;;4993362;28;20406;-52
2022/08/23 02:36:25;;;;;;;9.00;7.60;;;;;;;;;;4993095;28;20508;-50
2022/08/23 02:38:52;;;;;;;9.63;7.93;;;;;;;;;;4993132;28;20491;-51
2022/08/23 02:41:18;;;;;;;14.10;7.23;;;;;;;;;;4992936;28;20454;-51
2022/08/23 02:43:44;;;;;;;8.93;7.53;;;;;;;;;;4993224;28;20438;-51
2022/08/23 02:46:09;;;;;;;8.80;7.60;;;;;;;;;;4990222;28;20902;-51
2022/08/23 02:48:36;;;;;;;13.63;7.13;;;;;;;;;;4992938;28;20506;-51
2022/08/23 02:51:04;;;;;;;8.33;6.53;;;;;;;;;;4992813;28;20498;-51
2022/08/23 02:53:30;;;;;;;9.67;6.97;;;;;;;;;;4993047;28;20379;-50
2022/08/23 02:55:56;;;;;;;17.50;8.10;;;;;;;;;;4992828;28;20420;-51
2022/08/23 02:58:23;;;;;;;10.73;7.30;;;;;;;;;;4992674;28;20437;-52
2022/08/23 03:00:49;;;;;;;7.87;6.93;;;;;;;;;;4993008;28;20899;-51
2022/08/23 03:03:16;;;;;;;8.13;7.00;;;;;;;;;;4993302;28;20404;-51
2022/08/23 03:05:42;;;;;;;10.17;8.40;;;;;;;;;;4992828;28;20425;-52
2022/08/23 03:08:08;;;;;;;14.33;8.50;;;;;;;;;;4992707;28;20389;-51
2022/08/23 03:10:34;;;;;;;10.83;8.50;;;;;;;;;;4992379;28;20425;-50
2022/08/23 03:13:01;;;;;;;10.43;9.10;;;;;;;;;;4993111;28;20875;-51
2022/08/23 03:15:27;;;;;;;15.17;8.73;;;;;;;;;;4990447;28;20433;-50
2022/08/23 03:17:53;;;;;;;11.30;8.50;;;;;;;;;;4992539;28;20404;-51
2022/08/23 03:20:19;;;;;;;10.43;7.27;;;;;;;;;;4991933;28;20473;-51
2022/08/23 03:22:45;;;;;;;8.50;6.27;;;;;;;;;;4992535;28;20438;-51
2022/08/23 03:25:11;;;;;;;6.90;6.00;;;;;;;;;;4992251;28;20763;-52
2022/08/23 03:27:37;;;;;;;6.50;5.90;;;;;;;;;;4992572;28;20841;-51
2022/08/23 03:30:04;;;;;;;5.47;4.70;;;;;;;;;;4992087;28;20418;-51
2022/08/23 03:32:30;;;;;;;5.73;5.23;;;;;;;;;;4992642;28;20378;-50
2022/08/23 03:34:56;;;;;;;5.30;4.90;;;;;;;;;;4992086;28;20398;-52
2022/08/23 03:37:22;;;;;;;5.70;5.10;;;;;;;;;;4992426;28;20423;-51
2022/08/23 03:39:49;;;;;;;5.27;4.77;;;;;;;;;;4992194;28;20471;-51
2022/08/23 03:42:15;;;;;;;5.73;5.20;;;;;;;;;;4991970;28;20383;-50
2022/08/23 03:44:41;;;;;;;4.80;4.37;;;;;;;;;;4990541;28;20923;-51
2022/08/23 03:47:07;;;;;;;5.50;4.50;;;;;;;;;;4992176;28;20404;-51
2022/08/23 03:49:33;;;;;;;5.57;4.03;;;;;;;;;;4992089;28;20435;-52
2022/08/23 03:51:59;;;;;;;5.43;4.20;;;;;;;;;;4992406;28;20404;-51
2022/08/23 03:54:26;;;;;;;5.30;4.30;;;;;;;;;;4992218;28;20423;-51
2022/08/23 03:56:54;;;;;;;4.23;3.93;;;;;;;;;;4992265;28;20840;-50
2022/08/23 03:59:20;;;;;;;6.03;4.80;;;;;;;;;;4993025;28;20474;-50
2022/08/23 04:01:46;;;;;;;5.53;4.67;;;;;;;;;;4996297;28;20417;-51
2022/08/23 04:04:12;;;;;;;5.50;4.37;;;;;;;;;;4995870;28;20982;-51
2022/08/23 04:06:38;;;;;;;6.40;4.73;;;;;;;;;;4995886;28;20423;-51
2022/08/23 04:09:04;;;;;;;7.50;4.33;;;;;;;;;;4995395;28;20431;-52
2022/08/23 04:11:31;;;;;;;6.43;4.03;;;;;;;;;;4995361;28;20430;-50
2022/08/23 04:13:57;;;;;;;3.90;3.60;;;;;;;;;;4994612;28;20404;-51
2022/08/23 04:16:23;;;;;;;5.50;4.10;;;;;;;;;;4996144;28;20861;-52
2022/08/23 04:18:49;;;;;;;9.90;4.20;;;;;;;;;;4995646;28;20547;-51
2022/08/23 04:21:17;;;;;;;4.90;4.00;;;;;;;;;;4995645;28;20424;-50
2022/08/23 04:23:43;;;;;;;5.77;4.40;;;;;;;;;;4995861;28;20495;-51
2022/08/23 04:26:09;;;;;;;7.20;4.27;;;;;;;;;;4995638;28;20990;-50
2022/08/23 04:28:36;;;;;;;4.30;3.50;;;;;;;;;;4995543;28;20927;-51
2022/08/23 04:31:02;;;;;;;3.33;3.13;;;;;;;;;;4995548;28;20427;-50
2022/08/23 04:33:31;;;;;;;5.47;3.40;;;;;;;;;;4995670;28;20387;-50
2022/08/23 04:35:59;;;;;;;4.90;3.60;;;;;;;;;;4995288;28;20430;-50
2022/08/23 04:38:25;;;;;;;6.47;4.20;;;;;;;;;;4995221;28;20458;-50
2022/08/23 04:43:35;;;;;;;4.00;3.00;;;;;;;;;;4995777;28;20766;-50
2022/08/23 04:46:01;;;;;;;3.30;3.03;;;;;;;;;;4993343;28;20429;-51
2022/08/23 04:48:28;;;;;;;3.20;2.90;;;;;;;;;;4995209;28;20392;-50
2022/08/23 04:50:54;;;;;;;11.23;2.93;;;;;;;;;;4994978;28;20509;-50
2022/08/23 04:53:20;;;;;;;4.93;3.30;;;;;;;;;;4995230;28;20439;-50
2022/08/23 04:55:46;;;;;;;4.13;3.37;;;;;;;;;;4994842;28;20416;-50
2022/08/23 04:58:13;;;;;;;5.83;2.80;;;;;;;;;;4994982;28;20468;-51
2022/08/23 05:00:39;;;;;;;3.13;2.93;;;;;;;;;;4994393;28;20446;-48
2022/08/23 05:03:05;;;;;;;3.20;2.90;;;;;;;;;;4995129;28;20952;-48
2022/08/23 05:05:32;;;;;;;2.93;2.70;;;;;;;;;;4994657;28;20492;-47
2022/08/23 05:07:58;;;;;;;6.27;4.23;;;;;;;;;;4994934;28;20478;-51
2022/08/23 05:10:24;;;;;;;3.70;3.17;;;;;;;;;;4993367;28;20876;-49
2022/08/23 05:12:50;;;;;;;5.53;3.67;;;;;;;;;;4994809;28;20487;-50
2022/08/23 05:15:16;;;;;;;5.60;3.60;;;;;;;;;;4992734;28;20516;-50
2022/08/23 05:17:42;;;;;;;3.67;3.37;;;;;;;;;;4994783;28;20400;-51
2022/08/23 05:20:09;;;;;;;4.10;3.30;;;;;;;;;;4994039;28;20887;-50
2022/08/23 05:22:39;;;;;;;4.23;2.80;;;;;;;;;;4994863;28;20411;-50
2022/08/23 05:25:05;;;;;;;5.13;3.90;;;;;;;;;;4994376;28;20449;-48
2022/08/23 05:27:32;;;;;;;3.17;2.90;;;;;;;;;;4994583;28;20898;-48
2022/08/23 05:29:58;;;;;;;3.87;3.50;;;;;;;;;;4994325;28;20804;-48
2022/08/23 05:32:24;;;;;;;4.63;3.13;;;;;;;;;;4994489;28;20417;-47
2022/08/23 05:34:50;;;;;;;4.30;3.90;;;;;;;;;;4993980;28;20414;-48
2022/08/23 05:37:16;;;;;;;9.37;7.20;;;;;;;;;;4994451;28;21038;-48
2022/08/23 05:39:42;;;;;;;4.10;3.70;;;;;;;;;;4993666;28;20463;-48
2022/08/23 05:42:09;;;;;;;6.03;3.10;;;;;;;;;;4994706;28;20441;-48
2022/08/23 05:44:36;;;;;;;2.83;2.63;;;;;;;;;;4994430;28;20438;-47
2022/08/23 05:47:02;;;;;;;2.93;2.73;;;;;;;;;;4992270;28;20435;-49
2022/08/23 05:49:28;;;;;;;3.20;2.87;;;;;;;;;;4993917;28;20429;-47
2022/08/23 05:51:54;;;;;;;4.33;2.60;;;;;;;;;;4993408;28;20436;-47
2022/08/23 05:54:20;;;;;;;4.17;2.73;;;;;;;;;;4993546;28;20421;-46
2022/08/23 05:56:46;;;;;;;3.47;2.70;;;;;;;;;;4993457;28;20423;-48
2022/08/23 05:59:15;;;;;;;4.00;3.17;;;;;;;;;;4991608;28;20836;-49
2022/08/23 06:01:42;;;;;;;3.17;2.87;;;;;;;;;;4993037;28;20786;-47
2022/08/23 06:04:10;;;;;;;3.17;2.80;;;;;;;;;;4992571;28;20412;-49
2022/08/23 06:06:36;;;;;;;3.23;2.93;;;;;;;;;;4993041;28;20482;-47
2022/08/23 06:09:03;;;;;;;6.03;2.87;;;;;;;;;;4993115;28;20477;-49
2022/08/23 06:11:29;;;;;;;12.20;7.83;;;;;;;;;;4989327;28;20437;-48
2022/08/23 06:13:57;;;;;;;7.80;3.00;;;;;;;;;;4993479;28;20424;-47
2022/08/23 06:16:25;;;;;;;6.00;3.03;;;;;;;;;;4991835;28;20853;-52
2022/08/23 06:18:52;;;;;;;10.90;6.27;;;;;;;;;;4982462;28;20471;-50
2022/08/23 06:21:18;;;;;;;5.20;3.00;;;;;;;;;;4974146;28;20408;-51
2022/08/23 06:23:48;;;;;;;11.33;3.77;;;;;;;;;;4992473;28;20411;-50
2022/08/23 06:26:18;;;;;;;3.00;2.80;;;;;;;;;;4993628;28;20409;-50
2022/08/23 06:28:45;;;;;;;3.40;3.10;;;;;;;;;;4992811;28;20934;-51
2022/08/23 06:31:11;;;;;;;3.90;3.10;;;;;;;;;;4992117;28;20423;-51
2022/08/23 06:33:37;;;;;;;3.90;3.10;;;;;;;;;;4992628;28;20845;-51
2022/08/23 06:36:05;;;;;;;31.47;21.60;;;;;;;;;;4973000;28;20503;-55
2022/08/23 06:38:31;;;;;;;6.40;3.30;;;;;;;;;;4973369;28;20452;-50
2022/08/23 06:41:02;;;;;;;7.23;5.43;;;;;;;;;;4973590;28;20408;-51
2022/08/23 06:43:28;;;;;;;6.37;4.03;;;;;;;;;;4992362;28;20414;-50
2022/08/23 06:45:54;;;;;;;3.93;2.90;;;;;;;;;;4991126;28;20435;-50
2022/08/23 06:48:20;;;;;;;4.30;3.23;;;;;;;;;;4991536;28;20431;-50
2022/08/23 06:50:46;;;;;;;5.77;2.97;;;;;;;;;;4992418;28;20416;-50
2022/08/23 06:53:12;;;;;;;4.07;3.47;;;;;;;;;;4992740;28;20431;-51
2022/08/23 06:55:38;;;;;;;6.20;3.40;;;;;;;;;;4992740;28;20922;-51
2022/08/23 06:58:04;;;;;;;8.30;3.40;;;;;;;;;;4992191;28;20415;-51
2022/08/23 07:00:30;;;;;;;5.63;4.87;;;;;;;;;;4991972;28;20811;-50
2022/08/23 07:02:56;;;;;;;5.23;3.30;;;;;;;;;;4992398;28;20443;-51
2022/08/23 07:05:22;;;;;;;7.00;3.13;;;;;;;;;;4992022;28;20911;-51
2022/08/23 07:07:48;;;;;;;4.50;2.80;;;;;;;;;;4992344;28;20415;-51
2022/08/23 07:10:14;;;;;;;3.13;2.83;;;;;;;;;;4992148;28;20440;-51
2022/08/23 07:12:41;;;;;;;3.73;2.90;;;;;;;;;;4992181;28;20445;-51
2022/08/23 07:15:07;;;;;;;4.43;3.20;;;;;;;;;;4991317;28;20497;-52
2022/08/23 07:17:34;;;;;;;9.00;3.37;;;;;;;;;;4992637;28;20786;-51
2022/08/23 07:20:00;;;;;;;6.47;3.17;;;;;;;;;;4991732;28;20463;-51
2022/08/23 07:22:26;;;;;;;3.07;2.77;;;;;;;;;;4992328;28;20915;-51
2022/08/23 07:24:52;;;;;;;4.90;2.77;;;;;;;;;;4992545;28;20407;-50
2022/08/23 07:27:18;;;;;;;4.13;2.73;;;;;;;;;;4992099;28;20922;-50
2022/08/23 07:29:44;;;;;;;3.73;2.90;;;;;;;;;;4991875;28;20443;-51
2022/08/23 07:32:10;;;;;;;6.63;2.73;;;;;;;;;;4991974;28;20450;-52
2022/08/23 07:34:36;;;;;;;5.33;2.90;;;;;;;;;;4991368;28;20469;-51
2022/08/23 07:37:03;;;;;;;4.00;2.87;;;;;;;;;;4991860;28;20420;-52
2022/08/23 07:39:30;;;;;;;3.27;2.60;;;;;;;;;;4987678;28;20463;-51
2022/08/23 07:41:58;;;;;;;4.13;2.53;;;;;;;;;;4990655;28;20469;-52
2022/08/23 07:44:23;;;;;;;4.83;2.50;;;;;;;;;;4989809;28;20412;-52
2022/08/23 07:46:49;;;;;;;2.57;2.37;;;;;;;;;;4990655;28;20420;-52
2022/08/23 07:49:16;;;;;;;3.10;2.60;;;;;;;;;;4990920;28;20862;-52
2022/08/23 07:51:44;;;;;;;5.10;3.10;;;;;;;;;;4991636;28;20417;-51
2022/08/23 07:54:11;;;;;;;2.63;2.40;;;;;;;;;;4992110;28;20416;-52
2022/08/23 07:56:37;;;;;;;7.60;2.60;;;;;;;;;;4991554;28;20430;-51
2022/08/23 07:59:04;;;;;;;3.40;2.43;;;;;;;;;;4991484;28;20467;-52
2022/08/23 08:01:30;;;;;;;2.73;2.30;;;;;;;;;;4992052;28;20927;-52
2022/08/23 08:03:59;;;;;;;5.73;2.70;;;;;;;;;;4991810;28;20938;-52
2022/08/23 08:06:25;;;;;;;4.10;2.30;;;;;;;;;;4976576;28;20435;-52
2022/08/23 08:08:51;;;;;;;2.80;2.40;;;;;;;;;;4991111;28;20939;-52
2022/08/23 08:11:19;;;;;;;2.90;2.53;;;;;;;;;;4990455;28;21088;-52
2022/08/23 08:13:46;;;;;;;5.10;1.90;;;;;;;;;;4991740;28;20408;-52
2022/08/23 08:16:21;;;;;;;4.20;2.20;;;;;;;;;;4991511;28;20499;-52
2022/08/23 08:18:47;;;;;;;4.93;2.50;;;;;;;;;;4991286;28;20494;-52
2022/08/23 08:21:14;;;;;;;4.90;2.90;;;;;;;;;;4991654;28;20430;-53
2022/08/23 08:23:40;;;;;;;2.47;2.27;;;;;;;;;;4991506;28;21017;-53
2022/08/23 08:26:07;;;;;;;4.20;2.50;;;;;;;;;;4991882;28;20443;-53
2022/08/23 08:28:34;;;;;;;6.20;2.30;;;;;;;;;;4991417;28;20455;-52
2022/08/23 08:31:01;;;;;;;3.23;2.57;;;;;;;;;;4991611;28;20514;-52
2022/08/23 08:33:27;;;;;;;3.27;2.30;;;;;;;;;;4990010;28;20424;-52
2022/08/23 08:35:54;;;;;;;2.73;2.50;;;;;;;;;;4987135;28;20531;-52
2022/08/23 08:38:20;;;;;;;4.50;2.23;;;;;;;;;;4990403;28;20740;-52
2022/08/23 08:40:48;;;;;;;5.10;2.60;;;;;;;;;;4990187;28;20412;-52
2022/08/23 08:43:23;;;;;;;8.73;3.23;;;;;;;;;;4991294;28;20422;-52
2022/08/23 08:45:59;;;;;;;2.90;2.10;;;;;;;;;;4992476;28;20466;-52
2022/08/23 08:48:27;;;;;;;2.67;2.47;;;;;;;;;;4993302;28;20434;-52
2022/08/23 08:50:56;;;;;;;3.00;2.20;;;;;;;;;;4994739;28;20424;-51
2022/08/23 08:53:24;;;;;;;3.87;2.80;;;;;;;;;;4994593;28;20793;-52
2022/08/23 08:55:51;;;;;;;4.37;2.43;;;;;;;;;;4994835;28;20897;-52
2022/08/23 08:58:29;;;;;;;3.03;2.50;;;;;;;;;;4993641;28;20416;-52
2022/08/23 09:00:55;;;;;;;2.23;2.10;;;;;;;;;;4975378;28;20575;-52
2022/08/23 09:03:22;;;;;;;2.50;2.30;;;;;;;;;;4977866;28;20928;-52
2022/08/23 09:05:59;;;;;;;4.30;2.67;;;;;;;;;;4994438;28;20412;-52
2022/08/23 09:08:41;;;;;;;10.20;2.80;;;;;;;;;;4994504;28;20815;-52
2022/08/23 09:11:10;;;;;;;2.73;2.37;;;;;;;;;;4994506;28;20759;-52
2022/08/23 09:14:00;;;;;;;2.50;2.30;;;;;;;;;;4994378;28;20416;-52
2022/08/23 09:16:39;;;;;;;3.10;2.50;;;;;;;;;;4993215;28;20502;-52
2022/08/23 09:19:05;;;;;;;7.03;3.00;;;;;;;;;;4993143;28;20479;-50
2022/08/23 09:21:37;;;;;;;2.60;2.40;;;;;;;;;;4994511;28;20867;-50
2022/08/23 09:24:03;;;;;;;3.17;2.33;;;;;;;;;;4994092;28;20430;-50
2022/08/23 09:26:30;;;;;;;2.53;2.20;;;;;;;;;;4994139;28;20424;-50
2022/08/23 09:29:00;;;;;;;2.50;2.30;;;;;;;;;;4993789;28;20531;-50
2022/08/23 09:31:46;;;;;;;5.80;2.40;;;;;;;;;;4992425;28;20682;-50
2022/08/23 09:34:17;;;;;;;5.90;2.60;;;;;;;;;;4992991;28;20904;-50
2022/08/23 09:36:44;;;;;;;4.30;2.33;;;;;;;;;;4994021;28;20419;-50
2022/08/23 09:39:27;;;;;;;2.30;2.13;;;;;;;;;;4993459;28;20464;-50
2022/08/23 09:41:54;;;;;;;3.57;2.67;;;;;;;;;;4993935;28;20416;-50
2022/08/23 09:44:34;;;;;;;3.73;2.33;;;;;;;;;;4993723;28;20677;-50
2022/08/23 09:47:15;;;;;;;6.27;3.00;;;;;;;;;;4993833;28;20412;-50
2022/08/23 09:49:43;;;;;;;3.00;2.77;;;;;;;;;;4993329;28;20454;-50
2022/08/23 09:52:20;;;;;;;3.47;2.20;;;;;;;;;;4993845;28;20424;-50
2022/08/23 09:54:54;;;;;;;3.27;2.50;;;;;;;;;;4993810;28;20419;-51
2022/08/23 09:57:24;;;;;;;6.13;2.10;;;;;;;;;;4992936;28;20423;-50
2022/08/23 09:59:50;;;;;;;3.20;2.23;;;;;;;;;;4993024;28;20518;-50
2022/08/23 10:02:28;;;;;;;3.87;2.07;;;;;;;;;;4993628;28;20438;-51
2022/08/23 10:04:59;;;;;;;3.43;2.60;;;;;;;;;;4992113;28;20459;-50
2022/08/23 10:07:32;;;;;;;2.80;2.37;;;;;;;;;;4991799;28;20462;-50
2022/08/23 10:10:17;;;;;;;2.60;2.33;;;;;;;;;;4993123;28;21235;-50
2022/08/23 10:12:44;;;;;;;3.07;2.77;;;;;;;;;;4990854;28;20408;-51
2022/08/23 10:15:12;;;;;;;3.63;2.57;;;;;;;;;;4993162;28;20483;-50
2022/08/23 10:17:44;;;;;;;4.30;2.20;;;;;;;;;;4993288;28;20412;-52
2022/08/23 10:20:28;;;;;;;2.50;2.30;;;;;;;;;;4992747;28;20993;-50
2022/08/23 10:23:02;;;;;;;3.03;2.40;;;;;;;;;;4991595;28;20404;-50
2022/08/23 10:25:44;;;;;;;6.77;2.60;;;;;;;;;;4993063;28;20415;-51
2022/08/23 10:31:10;;;;;;;3.53;2.40;;;;;;;;;;4993098;28;20419;-50
2022/08/23 10:33:36;;;;;;;5.97;2.50;;;;;;;;;;4991666;28;20839;-50
2022/08/23 10:36:18;;;;;;;3.93;2.50;;;;;;;;;;4993002;28;20443;-51
2022/08/23 10:39:04;;;;;;;3.50;2.17;;;;;;;;;;4992498;28;20208;-50
2022/08/23 10:41:37;;;;;;;2.33;2.13;;;;;;;;;;4982345;28;20432;-51
2022/08/23 10:44:21;;;;;;;3.03;2.73;;;;;;;;;;4992900;28;20820;-51
2022/08/23 10:46:50;;;;;;;4.50;3.10;;;;;;;;;;4992867;28;20786;-51
2022/08/23 10:49:16;;;;;;;2.97;2.67;;;;;;;;;;4992772;28;20439;-50
2022/08/23 10:51:44;;;;;;;7.07;4.13;;;;;;;;;;4992598;28;20451;-50
2022/08/23 10:54:17;;;;;;;5.97;4.70;;;;;;;;;;4992769;28;20184;-52
2022/08/23 10:56:43;;;;;;;17.57;5.77;;;;;;;;;;4992637;28;20430;-51
2022/08/23 10:59:13;;;;;;;7.33;4.50;;;;;;;;;;4990461;28;20471;-51
2022/08/23 11:01:45;;;;;;;5.20;3.40;;;;;;;;;;4992654;28;20173;-50
2022/08/23 11:04:25;;;;;;;4.90;3.17;;;;;;;;;;4991564;28;20416;-51
2022/08/23 11:06:52;;;;;;;7.30;2.93;;;;;;;;;;4991396;28;20790;-50
2022/08/23 11:09:18;;;;;;;3.00;2.70;;;;;;;;;;4991286;28;20435;-50
2022/08/23 11:11:46;;;;;;;3.30;3.00;;;;;;;;;;4992480;28;20914;-51
2022/08/23 11:14:34;;;;;;;3.40;3.00;;;;;;;;;;4992515;28;20187;-50
2022/08/23 11:17:10;;;;;;;3.77;3.47;;;;;;;;;;4992233;28;21006;-51
2022/08/23 11:19:46;;;;;;;4.47;2.43;;;;;;;;;;4992191;28;20462;-51
2022/08/23 11:22:17;;;;;;;3.50;2.73;;;;;;;;;;4992479;28;20749;-51
2022/08/23 11:24:50;;;;;;;3.70;2.60;;;;;;;;;;4990564;28;20428;-50
2022/08/23 11:27:46;;;;;;;4.10;2.60;;;;;;;;;;4995090;28;20946;-50
2022/08/23 11:30:30;;;;;;;3.83;2.80;;;;;;;;;;4990241;28;20787;-51
2022/08/23 11:32:59;;;;;;;3.00;2.53;;;;;;;;;;4984963;28;20832;-50
2022/08/23 11:35:34;;;;;;;3.60;2.70;;;;;;;;;;4986458;28;20972;-52
2022/08/23 11:38:01;;;;;;;6.83;2.70;;;;;;;;;;4991256;28;20844;-51
2022/08/23 11:41:02;;;;;;;4.30;3.30;;;;;;;;;;4993862;28;20467;-50
2022/08/23 11:43:38;;;;;;;3.40;2.87;;;;;;;;;;4955691;28;20447;-50
2022/08/23 11:46:24;;;;;;;2.70;2.50;;;;;;;;;;4983659;28;20788;-51
2022/08/23 11:49:10;;;;;;;6.53;2.47;;;;;;;;;;4972493;28;20424;-51
2022/08/23 11:51:39;;;;;;;2.80;2.60;;;;;;;;;;4986451;28;20432;-51
2022/08/23 11:54:08;;;;;;;3.27;2.80;;;;;;;;;;4991125;28;20470;-51
2022/08/23 11:56:40;;;;;;;3.87;2.40;;;;;;;;;;4991916;28;20482;-51
2022/08/23 11:59:12;;;;;;;3.50;2.40;;;;;;;;;;4989156;28;20463;-51
2022/08/23 12:01:40;;;;;;;2.73;2.30;;;;;;;;;;4991796;28;20396;-51
2022/08/23 12:04:10;;;;;;;3.83;3.20;;;;;;;;;;4992106;28;20412;-52
2022/08/23 12:06:47;;;;;;;6.97;2.50;;;;;;;;;;4988192;28;21172;-51
2022/08/23 12:09:22;;;;;;;5.33;2.50;;;;;;;;;;4991356;28;20458;-51
2022/08/23 12:11:54;;;;;;;2.57;2.37;;;;;;;;;;4991797;28;20963;-51
2022/08/23 12:14:32;;;;;;;3.07;2.77;;;;;;;;;;4992046;28;20408;-50
2022/08/23 12:17:03;;;;;;;3.70;2.67;;;;;;;;;;4989668;28;20427;-50
2022/08/23 12:19:29;;;;;;;3.60;2.73;;;;;;;;;;4991543;28;20509;-50
2022/08/23 12:21:56;;;;;;;3.80;2.57;;;;;;;;;;4995318;28;20411;-50
2022/08/23 12:24:31;;;;;;;4.33;2.30;;;;;;;;;;4995529;28;20296;-50
2022/08/23 12:27:16;;;;;;;3.33;3.03;;;;;;;;;;4995242;28;20399;-49
2022/08/23 12:29:52;;;;;;;5.67;2.63;;;;;;;;;;4995167;28;20498;-51
2022/08/23 12:32:36;;;;;;;11.83;2.60;;;;;;;;;;4995691;28;20506;-50
2022/08/23 12:35:09;;;;;;;3.67;2.27;;;;;;;;;;4995365;28;20403;-50
2022/08/23 12:37:54;;;;;;;4.67;2.90;;;;;;;;;;4995070;28;20419;-50
2022/08/23 12:40:34;;;;;;;3.47;2.40;;;;;;;;;;4994944;28;20551;-50
2022/08/23 12:43:15;;;;;;;2.90;2.60;;;;;;;;;;4993182;28;20427;-49
2022/08/23 12:45:44;;;;;;;2.80;2.20;;;;;;;;;;4993012;28;20791;-50
2022/08/23 12:48:11;;;;;;;3.53;2.87;;;;;;;;;;4994864;28;20787;-50
2022/08/23 12:50:39;;;;;;;2.93;2.63;;;;;;;;;;4994469;28;20739;-50
2022/08/23 12:53:07;;;;;;;3.17;2.53;;;;;;;;;;4994854;28;20430;-50
2022/08/23 12:55:37;;;;;;;2.53;2.33;;;;;;;;;;4993205;28;20881;-50
2022/08/23 12:58:04;;;;;;;2.87;2.50;;;;;;;;;;4975224;28;20448;-50
2022/08/23 13:00:32;;;;;;;5.60;2.50;;;;;;;;;;4974986;28;20472;-50
2022/08/23 13:03:03;;;;;;;3.63;2.50;;;;;;;;;;4975335;28;20893;-50
2022/08/23 13:05:32;;;;;;;7.37;2.60;;;;;;;;;;4975441;28;20401;-50
2022/08/23 13:08:01;;;;;;;2.80;2.60;;;;;;;;;;4982202;28;20736;-50
2022/08/23 13:10:27;;;;;;;5.47;3.00;;;;;;;;;;4994504;28;20420;-50
2022/08/23 13:12:54;;;;;;;4.70;2.37;;;;;;;;;;4994817;28;20412;-50
2022/08/23 13:15:49;;;;;;;6.37;2.67;;;;;;;;;;4994447;28;20506;-50
2022/08/23 13:18:34;;;;;;;3.30;2.43;;;;;;;;;;4985749;28;20510;-50
2022/08/23 13:21:19;;;;;;;3.20;2.80;;;;;;;;;;4994872;28;20755;-50
2022/08/23 13:23:45;;;;;;;7.03;2.67;;;;;;;;;;4994572;28;20470;-49
2022/08/23 13:26:28;;;;;;;5.40;2.60;;;;;;;;;;4994779;28;20831;-50
2022/08/23 13:29:02;;;;;;;2.40;2.20;;;;;;;;;;4994076;28;20846;-50
2022/08/23 13:31:47;;;;;;;5.00;2.40;;;;;;;;;;4993708;28;20412;-50
2022/08/23 13:34:33;;;;;;;2.70;2.50;;;;;;;;;;4992238;28;20432;-50
2022/08/23 13:37:01;;;;;;;4.73;2.40;;;;;;;;;;4993754;28;20786;-50
2022/08/23 13:39:27;;;;;;;4.77;2.43;;;;;;;;;;4993987;28;20950;-51
2022/08/23 13:41:54;;;;;;;6.00;2.50;;;;;;;;;;4994313;28;20408;-50
2022/08/23 13:44:21;;;;;;;2.93;2.07;;;;;;;;;;4994034;28;20408;-50
2022/08/23 13:46:47;;;;;;;11.73;2.10;;;;;;;;;;4994172;28;20886;-50
2022/08/23 13:49:13;;;;;;;3.43;1.73;;;;;;;;;;4993943;28;20428;-51
2022/08/23 13:51:41;;;;;;;3.10;2.00;;;;;;;;;;4994138;28;21007;-50
2022/08/23 13:54:09;;;;;;;1.73;1.63;;;;;;;;;;4994096;28;20196;-49
2022/08/23 13:56:37;;;;;;;3.10;1.90;;;;;;;;;;4994017;28;20412;-49
2022/08/23 13:59:07;;;;;;;4.50;2.07;;;;;;;;;;4991303;28;20467;-49
2022/08/23 14:01:34;;;;;;;2.30;2.10;;;;;;;;;;4993344;28;20467;-49
2022/08/23 14:04:00;;;;;;;2.17;1.80;;;;;;;;;;4993847;28;20404;-50
2022/08/23 14:06:26;;;;;;;2.33;2.00;;;;;;;;;;4994246;28;20435;-49
2022/08/23 14:08:52;;;;;;;4.60;1.90;;;;;;;;;;4996771;28;20192;-51
2022/08/23 14:11:18;;;;;;;5.03;2.10;;;;;;;;;;4994127;28;20404;-49
2022/08/23 14:13:46;;;;;;;3.40;2.20;;;;;;;;;;4993566;28;20408;-49
2022/08/23 14:16:15;;;;;;;2.33;2.13;;;;;;;;;;4993567;28;20491;-51
2022/08/23 14:18:41;;;;;;;4.37;2.50;;;;;;;;;;4993040;28;20828;-50
2022/08/23 14:21:08;;;;;;;2.27;2.07;;;;;;;;;;4994340;28;20810;-49
2022/08/23 14:23:34;;;;;;;1.93;1.80;;;;;;;;;;4992417;28;20396;-49
2022/08/23 14:26:00;;;;;;;2.80;1.70;;;;;;;;;;4991508;28;20435;-49
2022/08/23 14:28:27;;;;;;;3.63;2.07;;;;;;;;;;4993193;28;20173;-49
2022/08/23 14:30:53;;;;;;;3.67;2.03;;;;;;;;;;4993704;28;20431;-50
2022/08/23 14:33:20;;;;;;;9.17;2.43;;;;;;;;;;4993379;28;20881;-49
2022/08/23 14:35:46;;;;;;;5.10;2.13;;;;;;;;;;4993307;28;20165;-50
2022/08/23 14:38:13;;;;;;;3.10;2.20;;;;;;;;;;4992414;28;20420;-50
2022/08/23 14:40:39;;;;;;;2.17;1.70;;;;;;;;;;4992226;28;20419;-50
2022/08/23 14:43:06;;;;;;;3.23;2.10;;;;;;;;;;4992670;28;20420;-50
2022/08/23 14:45:32;;;;;;;2.27;1.83;;;;;;;;;;4992678;28;20418;-50
2022/08/23 14:47:58;;;;;;;5.47;1.80;;;;;;;;;;4993119;28;20392;-49
2022/08/23 14:50:24;;;;;;;4.03;2.40;;;;;;;;;;4990901;28;21394;-51
2022/08/23 14:52:50;;;;;;;4.37;2.30;;;;;;;;;;4992686;28;20404;-51
2022/08/23 14:55:16;;;;;;;2.40;2.20;;;;;;;;;;4991886;28;20474;-50
2022/08/23 14:57:42;;;;;;;4.80;2.37;;;;;;;;;;4992904;28;20880;-49
2022/08/23 15:00:12;;;;;;;2.67;2.47;;;;;;;;;;4992216;28;20526;-50
2022/08/23 15:02:38;;;;;;;3.10;2.00;;;;;;;;;;4993209;28;20427;-49